CheckWX is a tool to help pilots better visualize weather data.  It is not intended as a substitute for an official pre-flight weather briefing.

09:29:39 UTC

CYZX TAF
CFB Greenwood Airport
Greenwood, Canada
TAF CYZX 200530Z 2006/2106 30018G28KT P6SM SCT040 TEMPO 2006/2012 BKN030 FM201500 31012G22KT P6SM FEW040 FEW250 FM202200 30010KT P6SM FEW040 BKN210 FM210400 VRB03KT P6SM SCT030 BKN140 OVC220 RMK NXT FCST BY 201200Z

Feb-20@
06:00 UTC

Feb-20 @ 06:00 UTC

Feb-20@
15:00 UTC

Feb-20 @ 15:00 UTC

TAF CYZX 200530Z 2006/2106 30018G28KT P6SM SCT040
Wind
  • 300° at 18 KTS
  • {Gusting to 28 KTS
Visibility
10,000+ meters
Cloud Levels
  • Scattered at 4,000' AGL

Feb-20@
06:00 UTC

Feb-20 @ 06:00 UTC

Feb-20@
12:00 UTC

Feb-20 @ 12:00 UTC

TEMPO 2006/2012 BKN030

Temporary

TemporaryChanges expected for less than half the time period

Cloud Levels
  • Broken at 3,000' AGL

Feb-20@
15:00 UTC

Feb-20 @ 15:00 UTC

Feb-20@
22:00 UTC

Feb-20 @ 22:00 UTC

FM201500 31012G22KT P6SM FEW040 FEW250

From

FromStandard forecast or significant change

Wind
  • 310° at 12 KTS
  • {Gusting to 22 KTS
Visibility
10,000+ meters
Cloud Levels
  • Few at 4,000' AGL
  • Few at 25,000' AGL

Feb-20@
22:00 UTC

Feb-20 @ 22:00 UTC

Feb-21@
04:00 UTC

Feb-21 @ 04:00 UTC

FM202200 30010KT P6SM FEW040 BKN210

From

FromStandard forecast or significant change

Wind
  • 300° at 10 KTS
Visibility
10,000+ meters
Cloud Levels
  • Few at 4,000' AGL
  • Broken at 21,000' AGL

Feb-21@
04:00 UTC

Feb-21 @ 04:00 UTC

Feb-21@
06:00 UTC

Feb-21 @ 06:00 UTC

FM210400 VRB03KT P6SM SCT030 BKN140 OVC220 RMK NXT FCST BY 201200Z

From

FromStandard forecast or significant change

Wind
  • Variable at 3 KTS
Visibility
10,000+ meters
Cloud Levels
  • Scattered at 3,000' AGL
  • Broken at 14,000' AGL
  • Overcast at 22,000' AGL